createdAt,value
2018-09-18T00:00:18.768Z,13.10
2018-09-18T00:02:46.327Z,10.93
2018-09-18T00:05:13.824Z,12.27
2018-09-18T00:07:41.394Z,13.00
2018-09-18T00:10:08.977Z,12.20
2018-09-18T00:12:36.507Z,13.43
2018-09-18T00:15:04.352Z,12.57
2018-09-18T00:17:31.911Z,13.03
2018-09-18T00:19:59.736Z,13.40
2018-09-18T00:22:27.485Z,11.77
2018-09-18T00:24:55.056Z,14.00
2018-09-18T00:27:22.610Z,12.23
2018-09-18T00:29:50.108Z,13.07
2018-09-18T00:32:17.643Z,12.47
2018-09-18T00:34:45.200Z,13.77
2018-09-18T00:37:13.560Z,14.93
2018-09-18T00:39:41.141Z,13.13
2018-09-18T00:42:08.619Z,13.93
2018-09-18T00:44:36.150Z,13.93
2018-09-18T00:47:03.676Z,13.40
2018-09-18T00:49:31.196Z,13.17
2018-09-18T00:51:58.806Z,14.40
2018-09-18T00:54:27.231Z,13.30
2018-09-18T00:56:54.717Z,14.73
2018-09-18T00:59:22.235Z,14.67
2018-09-18T01:01:49.752Z,13.90
2018-09-18T01:04:17.261Z,12.70
2018-09-18T01:06:44.753Z,14.47
2018-09-18T01:09:12.380Z,14.37
2018-09-18T01:11:40.324Z,14.40
2018-09-18T01:14:07.908Z,13.90
2018-09-18T01:16:35.852Z,13.70
2018-09-18T01:19:03.362Z,14.90
2018-09-18T01:21:30.875Z,13.27
2018-09-18T01:23:58.458Z,15.17
2018-09-18T01:26:26.908Z,13.83
2018-09-18T01:28:54.539Z,14.87
2018-09-18T01:31:22.045Z,14.10
2018-09-18T01:33:49.527Z,14.50
2018-09-18T01:36:17.107Z,15.57
2018-09-18T01:38:44.595Z,13.37
2018-09-18T01:41:12.088Z,15.20
2018-09-18T01:43:39.699Z,13.73
2018-09-18T01:46:07.168Z,13.03
2018-09-18T01:48:34.695Z,13.87
2018-09-18T01:51:02.259Z,14.47
2018-09-18T01:53:29.915Z,11.90
2018-09-18T01:55:57.427Z,14.30
2018-09-18T01:58:25.710Z,13.37
2018-09-18T02:00:53.263Z,14.73
2018-09-18T02:03:21.036Z,12.60
2018-09-18T02:05:48.571Z,14.27
2018-09-18T02:08:16.129Z,13.10
2018-09-18T02:10:43.862Z,13.77
2018-09-18T02:13:11.547Z,14.53
2018-09-18T02:15:39.152Z,14.30
2018-09-18T02:18:06.618Z,15.00
2018-09-18T02:20:34.340Z,14.33
2018-09-18T02:23:02.111Z,13.83
2018-09-18T02:25:30.003Z,13.43
2018-09-18T02:27:57.848Z,17.53
2018-09-18T02:30:27.056Z,15.73
2018-09-18T02:32:54.664Z,13.27
2018-09-18T02:35:22.379Z,14.20
2018-09-18T02:37:50.143Z,14.40
2018-09-18T02:40:17.784Z,12.37
2018-09-18T02:42:45.473Z,13.60
2018-09-18T02:45:13.074Z,14.27
2018-09-18T02:47:40.660Z,14.80
2018-09-18T02:50:08.373Z,14.53
2018-09-18T02:52:36.129Z,13.83
2018-09-18T02:55:03.757Z,13.87
2018-09-18T02:57:31.551Z,15.07
2018-09-18T02:59:59.163Z,15.03
2018-09-18T03:02:27.738Z,13.63
2018-09-18T03:04:55.409Z,16.60
2018-09-18T03:07:22.967Z,15.50
2018-09-18T03:09:50.521Z,14.10
2018-09-18T03:12:18.044Z,13.80
2018-09-18T03:14:45.541Z,15.23
2018-09-18T03:17:13.101Z,15.00
2018-09-18T03:19:40.620Z,14.60
2018-09-18T03:22:08.130Z,15.93
2018-09-18T03:24:35.668Z,14.30
2018-09-18T03:27:03.268Z,15.40
2018-09-18T03:29:30.787Z,14.20
2018-09-18T03:31:58.570Z,15.33
2018-09-18T03:34:26.956Z,13.50
2018-09-18T03:36:54.524Z,14.30
2018-09-18T03:39:22.035Z,15.40
2018-09-18T03:41:49.907Z,16.27
2018-09-18T03:44:17.452Z,16.17
2018-09-18T03:46:45.223Z,15.77
2018-09-18T03:49:12.851Z,15.90
2018-09-18T03:51:40.531Z,16.00
2018-09-18T03:54:08.098Z,17.03
2018-09-18T03:56:35.662Z,15.70
2018-09-18T03:59:03.354Z,17.87
2018-09-18T04:01:30.936Z,14.47
2018-09-18T04:03:58.423Z,16.53
2018-09-18T04:06:26.642Z,16.10
2018-09-18T04:08:54.155Z,15.87
2018-09-18T04:11:21.690Z,15.90
2018-09-18T04:13:49.352Z,15.73
2018-09-18T04:16:16.935Z,15.90
2018-09-18T04:18:44.554Z,16.07
2018-09-18T04:21:12.159Z,16.13
2018-09-18T04:23:39.792Z,17.70
2018-09-18T04:26:07.418Z,18.40
2018-09-18T04:28:35.068Z,17.30
2018-09-18T04:31:02.760Z,17.70
2018-09-18T04:33:30.302Z,18.43
2018-09-18T04:35:57.804Z,15.50
2018-09-18T04:38:26.426Z,14.77
2018-09-18T04:40:53.976Z,17.43
2018-09-18T04:43:21.637Z,13.63
2018-09-18T04:45:49.238Z,15.23
2018-09-18T04:48:17.065Z,14.77
2018-09-18T04:50:44.692Z,15.40
2018-09-18T04:53:12.400Z,15.23
2018-09-18T04:55:40.310Z,14.87
2018-09-18T04:58:07.853Z,16.50
2018-09-18T05:00:36.443Z,16.20
2018-09-18T05:03:04.776Z,17.17
2018-09-18T05:05:32.370Z,15.93
2018-09-18T05:08:00.424Z,16.60
2018-09-18T05:10:28.521Z,16.53
2018-09-18T05:12:56.372Z,15.53
2018-09-18T05:15:24.395Z,16.60
2018-09-18T05:17:52.087Z,16.63
2018-09-18T05:20:19.629Z,15.77
2018-09-18T05:22:47.174Z,20.60
2018-09-18T05:25:14.680Z,16.23
2018-09-18T05:27:42.573Z,17.30
2018-09-18T05:30:10.506Z,15.60
2018-09-18T05:32:38.066Z,14.87
2018-09-18T05:35:05.960Z,17.80
2018-09-18T05:37:33.527Z,16.07
2018-09-18T05:40:01.157Z,16.67
2018-09-18T05:42:28.763Z,16.00
2018-09-18T05:44:56.428Z,16.07
2018-09-18T05:47:24.033Z,21.23
2018-09-18T05:49:51.915Z,19.23
2018-09-18T05:52:19.496Z,18.07
2018-09-18T05:54:47.164Z,19.33
2018-09-18T05:57:14.630Z,19.87
2018-09-18T05:59:42.132Z,20.67
2018-09-18T06:02:09.677Z,24.77
2018-09-18T06:04:37.179Z,20.73
2018-09-18T06:07:04.850Z,23.93
2018-09-18T06:09:32.352Z,18.77
2018-09-18T06:12:00.253Z,17.63
2018-09-18T06:14:29.091Z,17.37
2018-09-18T06:16:56.668Z,15.40
2018-09-18T06:19:24.224Z,15.80
2018-09-18T06:21:51.714Z,13.80
2018-09-18T06:24:19.188Z,16.27
2018-09-18T06:26:46.784Z,17.60
2018-09-18T06:29:14.241Z,19.87
2018-09-18T06:31:41.736Z,14.10
2018-09-18T06:34:09.273Z,13.83
2018-09-18T06:36:36.833Z,14.20
2018-09-18T06:39:07.301Z,11.80
2018-09-18T06:41:34.741Z,12.40
2018-09-18T06:44:02.253Z,12.20
2018-09-18T06:46:29.872Z,11.20
2018-09-18T06:48:57.516Z,11.13
2018-09-18T06:51:24.998Z,13.57
2018-09-18T06:53:52.587Z,18.03
2018-09-18T06:56:20.084Z,12.43
2018-09-18T06:58:47.589Z,12.03
2018-09-18T07:01:15.088Z,12.23
2018-09-18T07:03:42.790Z,11.77
2018-09-18T07:06:10.382Z,12.63
2018-09-18T07:08:37.816Z,12.80
2018-09-18T07:11:05.814Z,11.33
2018-09-18T07:13:33.272Z,10.10
2018-09-18T07:16:00.754Z,9.87
2018-09-18T07:18:28.887Z,10.13
2018-09-18T07:20:56.381Z,9.03
2018-09-18T07:23:23.933Z,9.70
2018-09-18T07:25:51.416Z,11.10
2018-09-18T07:28:18.917Z,9.83
2018-09-18T07:30:46.352Z,13.13
2018-09-18T07:33:13.861Z,9.47
2018-09-18T07:35:41.344Z,8.40
2018-09-18T07:38:08.903Z,7.40
2018-09-18T07:40:36.399Z,7.43
2018-09-18T07:43:03.908Z,7.20
2018-09-18T07:45:31.460Z,6.83
2018-09-18T07:47:58.883Z,7.23
2018-09-18T07:50:28.399Z,9.50
2018-09-18T07:52:55.835Z,6.70
2018-09-18T07:55:23.323Z,6.67
2018-09-18T07:57:50.836Z,7.03
2018-09-18T08:00:18.329Z,8.50
2018-09-18T08:02:46.169Z,6.23
2018-09-18T08:05:13.644Z,7.83
2018-09-18T08:07:41.163Z,7.17
2018-09-18T08:10:08.668Z,7.03
2018-09-18T08:12:36.140Z,6.13
2018-09-18T08:15:03.632Z,6.13
2018-09-18T08:17:31.269Z,6.67
2018-09-18T08:19:58.729Z,5.90
2018-09-18T08:22:27.103Z,8.03
2018-09-18T08:24:54.539Z,5.60
2018-09-18T08:27:22.004Z,5.60
2018-09-18T08:29:49.443Z,6.00
2018-09-18T08:32:16.900Z,6.00
2018-09-18T08:34:44.475Z,6.00
2018-09-18T08:37:11.960Z,5.90
2018-09-18T08:39:39.587Z,7.03
2018-09-18T08:42:07.422Z,6.43
2018-09-18T08:44:35.103Z,5.70
2018-09-18T08:47:02.580Z,5.60
2018-09-18T08:49:30.066Z,5.87
2018-09-18T08:51:57.726Z,5.73
2018-09-18T08:54:25.207Z,5.73
2018-09-18T08:56:52.702Z,4.97
2018-09-18T08:59:20.213Z,7.50
2018-09-18T09:01:47.741Z,5.40
2018-09-18T09:04:15.196Z,6.60
2018-09-18T09:06:42.780Z,6.77
2018-09-18T09:09:12.612Z,5.77
2018-09-18T09:11:40.125Z,5.07
2018-09-18T09:14:07.679Z,8.20
2018-09-18T09:16:35.283Z,7.00
2018-09-18T09:19:02.905Z,9.23
2018-09-18T09:21:30.542Z,5.77
2018-09-18T09:23:58.021Z,5.33
2018-09-18T09:26:25.559Z,5.23
2018-09-18T09:28:53.744Z,6.30
2018-09-18T09:31:21.336Z,5.70
2018-09-18T09:33:48.817Z,6.57
2018-09-18T09:36:16.308Z,6.03
2018-09-18T09:38:43.820Z,5.93
2018-09-18T09:41:11.244Z,5.43
2018-09-18T09:43:38.918Z,4.93
2018-09-18T09:46:06.473Z,5.13
2018-09-18T09:48:34.916Z,6.87
2018-09-18T09:51:03.448Z,9.83
2018-09-18T09:53:30.905Z,5.10
2018-09-18T09:55:58.440Z,5.70
2018-09-18T09:58:25.977Z,5.10
2018-09-18T10:00:59.144Z,5.57
2018-09-18T10:03:26.634Z,5.27
2018-09-18T10:05:54.144Z,5.53
2018-09-18T10:08:21.839Z,6.40
2018-09-18T10:10:49.464Z,5.37
2018-09-18T10:13:16.886Z,6.53
2018-09-18T10:15:44.385Z,4.80
2018-09-18T10:18:11.983Z,4.77
2018-09-18T10:20:39.520Z,5.17
2018-09-18T10:23:07.029Z,5.10
2018-09-18T10:25:34.521Z,5.90
2018-09-18T10:28:02.065Z,5.57
2018-09-18T10:30:29.542Z,5.00
2018-09-18T10:32:57.101Z,6.47
2018-09-18T10:35:24.583Z,4.50
2018-09-18T10:37:52.170Z,5.30
2018-09-18T10:40:19.825Z,5.27
2018-09-18T10:42:47.691Z,6.97
2018-09-18T10:45:15.510Z,11.13
2018-09-18T10:47:43.190Z,8.47
2018-09-18T10:50:11.108Z,10.63
2018-09-18T10:52:39.066Z,5.00
2018-09-18T10:55:07.056Z,6.33
2018-09-18T10:57:34.639Z,6.97
2018-09-18T11:00:02.329Z,4.77
2018-09-18T11:02:29.824Z,5.47
2018-09-18T11:04:58.300Z,4.43
2018-09-18T11:07:25.793Z,7.47
2018-09-18T11:09:53.370Z,4.93
2018-09-18T11:12:20.893Z,4.30
2018-09-18T11:14:48.551Z,5.67
2018-09-18T11:17:16.269Z,4.93
2018-09-18T11:19:44.446Z,5.47
2018-09-18T11:22:11.881Z,4.53
2018-09-18T11:24:39.507Z,7.67
2018-09-18T11:27:07.175Z,4.97
2018-09-18T11:29:34.846Z,4.57
2018-09-18T11:32:02.381Z,4.37
2018-09-18T11:34:30.088Z,5.93
2018-09-18T11:36:57.522Z,4.67
2018-09-18T11:39:25.048Z,4.77
2018-09-18T11:41:53.446Z,5.90
2018-09-18T11:44:20.972Z,4.10
2018-09-18T11:46:48.498Z,5.40
2018-09-18T11:49:15.954Z,4.60
2018-09-18T11:51:43.478Z,4.50
2018-09-18T11:54:11.009Z,4.50
2018-09-18T11:56:38.567Z,5.07
2018-09-18T11:59:06.080Z,5.00
2018-09-18T12:01:33.617Z,5.00
2018-09-18T12:04:01.253Z,6.30
2018-09-18T12:06:29.773Z,4.17
2018-09-18T12:08:57.309Z,5.17
2018-09-18T12:11:24.871Z,4.67
2018-09-18T12:13:52.396Z,5.07
2018-09-18T12:16:20.081Z,4.93
2018-09-18T12:18:47.597Z,4.60
2018-09-18T12:21:15.413Z,6.00
2018-09-18T12:23:42.920Z,6.10
2018-09-18T12:26:10.388Z,4.83
2018-09-18T12:28:37.909Z,4.90
2018-09-18T12:31:05.414Z,5.23
2018-09-18T12:33:33.075Z,4.67
2018-09-18T12:36:00.675Z,5.10
2018-09-18T12:38:28.935Z,5.07
2018-09-18T12:40:56.408Z,6.20
2018-09-18T12:43:23.934Z,4.83
2018-09-18T12:45:51.392Z,5.20
2018-09-18T12:48:19.087Z,5.07
2018-09-18T12:50:46.612Z,6.47
2018-09-18T12:53:14.270Z,5.73
2018-09-18T12:55:41.738Z,5.20
2018-09-18T12:58:09.276Z,5.57
2018-09-18T13:00:36.764Z,4.70
2018-09-18T13:03:04.322Z,5.73
2018-09-18T13:05:31.883Z,6.20
2018-09-18T13:07:59.485Z,5.63
2018-09-18T13:10:26.913Z,5.70
2018-09-18T13:12:54.399Z,5.53
2018-09-18T13:15:21.876Z,5.63
2018-09-18T13:17:49.364Z,6.27
2018-09-18T13:20:16.833Z,7.67
2018-09-18T13:22:44.373Z,5.47
2018-09-18T13:25:11.916Z,5.63
2018-09-18T13:27:39.455Z,5.90
2018-09-18T13:30:06.997Z,5.20
2018-09-18T13:32:34.861Z,10.63
2018-09-18T13:35:02.379Z,5.27
2018-09-18T13:37:30.122Z,6.37
2018-09-18T13:40:00.925Z,5.70
2018-09-18T13:42:29.252Z,6.30
2018-09-18T13:44:57.240Z,7.30
2018-09-18T13:47:25.172Z,5.33
2018-09-18T13:49:53.014Z,6.77
2018-09-18T13:52:20.655Z,6.73
2018-09-18T13:54:48.377Z,6.13
2018-09-18T13:57:16.002Z,9.40
2018-09-18T13:59:43.881Z,5.57
2018-09-18T14:02:11.515Z,7.90
2018-09-18T14:04:39.421Z,5.60
2018-09-18T14:07:07.196Z,5.80
2018-09-18T14:09:34.843Z,6.20
2018-09-18T14:12:02.851Z,5.43
2018-09-18T14:14:31.018Z,5.67
2018-09-18T14:16:58.993Z,6.23
2018-09-18T14:19:26.512Z,7.03
2018-09-18T14:21:54.031Z,6.47
2018-09-18T14:24:21.531Z,5.97
2018-09-18T14:26:49.109Z,6.73
2018-09-18T14:29:16.593Z,5.43
2018-09-18T14:31:44.177Z,5.37
2018-09-18T14:34:11.889Z,5.93
2018-09-18T14:36:39.442Z,4.20
2018-09-18T14:39:08.000Z,5.17
2018-09-18T14:41:35.548Z,4.63
2018-09-18T14:44:03.107Z,6.60
2018-09-18T14:46:30.892Z,6.63
2018-09-18T14:48:58.421Z,4.67
2018-09-18T14:51:25.964Z,4.57
2018-09-18T14:53:53.882Z,7.03
2018-09-18T14:56:23.708Z,6.43
2018-09-18T14:58:51.591Z,4.80
2018-09-18T15:01:20.207Z,8.80
2018-09-18T15:03:49.660Z,4.70
2018-09-18T15:06:17.200Z,4.60
2018-09-18T15:08:44.763Z,4.87
2018-09-18T15:11:12.364Z,6.10
2018-09-18T15:13:40.158Z,5.40
2018-09-18T15:16:07.802Z,6.80
2018-09-18T15:18:35.391Z,5.57
2018-09-18T15:21:03.172Z,4.70
2018-09-18T15:23:30.642Z,4.70
2018-09-18T15:25:58.397Z,4.87
2018-09-18T15:28:25.852Z,5.03
2018-09-18T15:30:53.362Z,6.20
2018-09-18T15:33:20.868Z,4.77
2018-09-18T15:35:50.763Z,6.27
2018-09-18T15:38:18.444Z,8.17
2018-09-18T15:40:45.897Z,5.50
2018-09-18T15:43:13.439Z,5.57
2018-09-18T15:45:41.191Z,5.20
2018-09-18T15:48:08.704Z,6.17
2018-09-18T15:50:36.223Z,5.40
2018-09-18T15:53:03.747Z,5.70
2018-09-18T15:55:31.222Z,5.50
2018-09-18T15:57:59.380Z,5.23
2018-09-18T16:00:26.853Z,5.30
2018-09-18T16:02:54.653Z,4.93
2018-09-18T16:05:22.157Z,5.80
2018-09-18T16:07:49.636Z,4.87
2018-09-18T16:10:17.124Z,5.40
2018-09-18T16:12:44.616Z,5.20
2018-09-18T16:15:12.186Z,5.10
2018-09-18T16:17:39.871Z,5.00
2018-09-18T16:20:07.669Z,5.50
2018-09-18T16:22:35.179Z,4.93
2018-09-18T16:25:02.699Z,4.67
2018-09-18T16:27:30.184Z,8.87
2018-09-18T16:29:57.877Z,4.60
2018-09-18T16:32:25.428Z,9.30
2018-09-18T16:34:52.895Z,6.30
2018-09-18T16:37:20.426Z,5.27
2018-09-18T16:39:47.999Z,5.93
2018-09-18T16:42:15.504Z,4.50
2018-09-18T16:44:43.040Z,4.40
2018-09-18T16:47:10.520Z,4.23
2018-09-18T16:49:38.104Z,5.10
2018-09-18T16:52:05.789Z,6.03
2018-09-18T16:54:33.479Z,5.10
2018-09-18T16:57:00.983Z,7.27
2018-09-18T16:59:28.483Z,4.33
2018-09-18T17:01:56.247Z,7.33
2018-09-18T17:04:24.223Z,4.63
2018-09-18T17:06:51.766Z,5.03
2018-09-18T17:09:19.233Z,4.50
2018-09-18T17:11:46.757Z,7.97
2018-09-18T17:14:14.276Z,7.40
2018-09-18T17:16:41.801Z,4.40
2018-09-18T17:19:09.241Z,4.70
2018-09-18T17:21:36.801Z,7.07
2018-09-18T17:24:04.330Z,4.47
2018-09-18T17:26:31.922Z,5.87
2018-09-18T17:28:59.842Z,7.30
2018-09-18T17:31:27.353Z,4.70
2018-09-18T17:33:55.047Z,4.37
2018-09-18T17:36:22.725Z,4.47
2018-09-18T17:38:50.467Z,6.40
2018-09-18T17:41:17.988Z,7.53
2018-09-18T17:43:45.624Z,6.33
2018-09-18T17:46:13.247Z,4.80
2018-09-18T17:48:47.344Z,5.67
2018-09-18T17:51:18.222Z,4.40
2018-09-18T17:53:48.896Z,8.10
2018-09-18T17:56:16.621Z,13.63
2018-09-18T17:58:45.543Z,8.17
2018-09-18T18:01:13.092Z,12.27
2018-09-18T18:03:40.567Z,28.80
2018-09-18T18:06:08.055Z,55.60
2018-09-18T18:08:35.591Z,81.73
2018-09-18T18:11:03.171Z,131.87
2018-09-18T18:13:31.153Z,140.77
2018-09-18T18:15:58.901Z,163.90
2018-09-18T18:18:27.368Z,157.00
2018-09-18T18:20:54.985Z,163.53
2018-09-18T18:23:22.533Z,142.77
2018-09-18T18:25:50.299Z,144.40
2018-09-18T18:28:17.911Z,145.70
2018-09-18T18:30:45.673Z,133.27
2018-09-18T18:33:13.624Z,125.07
2018-09-18T18:35:41.323Z,111.83
2018-09-18T18:38:08.764Z,95.93
2018-09-18T18:40:36.255Z,87.80
2018-09-18T18:43:03.849Z,86.13
2018-09-18T18:45:31.401Z,80.63
2018-09-18T18:47:59.045Z,76.93
2018-09-18T18:50:26.408Z,69.00
2018-09-18T18:52:54.228Z,43.23
2018-09-18T18:55:21.748Z,39.17
2018-09-18T18:57:49.372Z,38.77
2018-09-18T19:00:16.985Z,29.70
2018-09-18T19:02:44.589Z,19.67
2018-09-18T19:05:12.184Z,16.70
2018-09-18T19:07:39.680Z,35.93
2018-09-18T19:10:07.342Z,15.10
2018-09-18T19:12:34.836Z,17.33
2018-09-18T19:15:07.301Z,10.97
2018-09-18T19:17:34.962Z,9.57
2018-09-18T19:20:02.825Z,13.30
2018-09-18T19:22:30.973Z,8.43
2018-09-18T19:24:58.639Z,9.00
2018-09-18T19:27:26.160Z,11.20
2018-09-18T19:29:53.645Z,10.17
2018-09-18T19:32:21.120Z,10.30
2018-09-18T19:34:48.687Z,10.83
2018-09-18T19:37:16.233Z,15.30
2018-09-18T19:39:43.827Z,9.60
2018-09-18T19:42:11.293Z,10.37
2018-09-18T19:44:38.861Z,11.57
2018-09-18T19:47:06.460Z,10.70
2018-09-18T19:49:38.521Z,8.50
2018-09-18T19:52:06.216Z,10.27
2018-09-18T19:54:33.867Z,8.40
2018-09-18T19:57:01.413Z,7.23
2018-09-18T19:59:28.908Z,9.93
2018-09-18T20:01:56.554Z,10.77
2018-09-18T20:04:24.072Z,10.40
2018-09-18T20:06:51.593Z,10.57
2018-09-18T20:09:19.305Z,8.27
2018-09-18T20:11:46.828Z,9.73
2018-09-18T20:14:14.810Z,11.10
2018-09-18T20:16:42.352Z,8.70
2018-09-18T20:19:10.087Z,10.33
2018-09-18T20:21:38.054Z,12.63
2018-09-18T20:24:05.614Z,12.63
2018-09-18T20:26:37.596Z,12.30
2018-09-18T20:29:07.337Z,9.93
2018-09-18T20:31:35.799Z,8.13
2018-09-18T20:34:03.857Z,17.43
2018-09-18T20:36:32.828Z,10.30
2018-09-18T20:39:00.693Z,8.33
2018-09-18T20:41:28.255Z,12.10
2018-09-18T20:43:55.902Z,17.03
2018-09-18T20:46:24.497Z,9.40
2018-09-18T20:48:52.708Z,18.90
2018-09-18T20:51:20.534Z,15.50
2018-09-18T20:53:50.552Z,12.17
2018-09-18T20:56:18.007Z,9.53
2018-09-18T20:58:45.499Z,12.67
2018-09-18T21:01:13.048Z,12.20
2018-09-18T21:03:40.564Z,12.43
2018-09-18T21:06:08.189Z,12.67
2018-09-18T21:08:35.766Z,16.17
2018-09-18T21:11:03.248Z,18.40
2018-09-18T21:13:30.945Z,11.77
2018-09-18T21:15:58.891Z,11.53
2018-09-18T21:18:26.515Z,15.53
2018-09-18T21:20:54.058Z,14.90
2018-09-18T21:23:21.831Z,14.87
2018-09-18T21:25:59.771Z,11.03
2018-09-18T21:28:27.292Z,13.50
2018-09-18T21:30:54.868Z,10.53
2018-09-18T21:33:22.354Z,12.30
2018-09-18T21:35:49.820Z,15.57
2018-09-18T21:38:17.335Z,15.10
2018-09-18T21:40:44.861Z,15.07
2018-09-18T21:43:12.348Z,12.17
2018-09-18T21:45:39.853Z,18.10
2018-09-18T21:48:07.879Z,14.03
2018-09-18T21:50:38.404Z,15.80
2018-09-18T21:53:07.921Z,17.43
2018-09-18T21:55:35.854Z,18.60
2018-09-18T21:58:03.537Z,17.47
2018-09-18T22:00:31.964Z,12.90
2018-09-18T22:03:00.581Z,16.40
2018-09-18T22:05:28.637Z,14.70
2018-09-18T22:07:56.301Z,14.67
2018-09-18T22:10:23.970Z,16.00
2018-09-18T22:12:51.517Z,16.00
2018-09-18T22:15:19.172Z,12.00
2018-09-18T22:17:46.711Z,16.10
2018-09-18T22:20:14.349Z,14.80
2018-09-18T22:22:42.609Z,11.90
2018-09-18T22:25:10.135Z,16.03
2018-09-18T22:27:37.685Z,14.53
2018-09-18T22:30:05.281Z,14.93
2018-09-18T22:32:33.522Z,20.90
2018-09-18T22:35:01.100Z,14.00
2018-09-18T22:37:28.912Z,12.27
2018-09-18T22:39:56.441Z,14.90
2018-09-18T22:42:23.977Z,16.70
2018-09-18T22:44:52.071Z,15.00
2018-09-18T22:47:19.601Z,17.60
2018-09-18T22:49:47.384Z,17.10
2018-09-18T22:52:14.955Z,15.53
2018-09-18T22:54:42.720Z,15.57
2018-09-18T22:57:10.244Z,14.57
2018-09-18T22:59:38.161Z,19.23
2018-09-18T23:02:05.855Z,18.20
2018-09-18T23:04:34.235Z,12.33
2018-09-18T23:07:02.182Z,13.57
2018-09-18T23:09:29.682Z,15.13
2018-09-18T23:11:57.363Z,18.07
2018-09-18T23:14:24.848Z,17.57
2018-09-18T23:16:52.320Z,25.70
2018-09-18T23:19:19.860Z,18.13
2018-09-18T23:21:47.362Z,20.13
2018-09-18T23:24:14.872Z,13.93
2018-09-18T23:26:42.427Z,17.63
2018-09-18T23:29:10.002Z,14.60
2018-09-18T23:31:37.950Z,18.80
2018-09-18T23:34:05.567Z,14.90
2018-09-18T23:36:34.215Z,15.67
2018-09-18T23:39:06.735Z,15.17
2018-09-18T23:41:34.394Z,17.73
2018-09-18T23:44:01.872Z,19.43
2018-09-18T23:46:29.715Z,20.63
2018-09-18T23:48:57.217Z,17.23
2018-09-18T23:51:24.753Z,19.47
2018-09-18T23:53:52.299Z,18.57
2018-09-18T23:56:19.807Z,19.60
2018-09-18T23:58:47.391Z,21.87
